Bloomingdale, New York
Current Conditions -  °F | °C
As of 9:54 PM on Saturday 22 Nov 2014 (Local Time) from KSLK Reporting Station
Haze Haze  
Wind Chill: 27°   Ceiling: 400
Heat Index: 36°   Visibility: 3mi
Dew Point: 34°   Wind: 14mph
Humidity: 93%   Direction: 230°SW
Pressure: 29.89"   Gusts: NA
Location:  44.41°N, 74.09°W
Report Text: KSLK 230254Z AUTO 23012KT 3SM BR OVC004 02/01 A2989 RMK AO2 T00220011
Loading
Personal Weather Stations






























Interactive Weather Map New forecast layout! Learn more

10-Day Weather Forecast

Advertisements
Track Severe Weather on mobile